createdAt,value
2023-04-06T00:02:06.408Z,0.79
2023-04-06T00:07:08.415Z,1.16
2023-04-06T00:12:10.264Z,0.87
2023-04-06T00:17:12.394Z,0.83
2023-04-06T00:22:14.241Z,0.81
2023-04-06T00:27:16.201Z,0.85
2023-04-06T00:32:18.050Z,0.89
2023-04-06T00:37:20.589Z,1.15
2023-04-06T00:42:27.162Z,0.94
2023-04-06T00:47:29.687Z,0.91
2023-04-06T00:52:31.946Z,1.31
2023-04-06T00:57:33.884Z,1.28
2023-04-06T01:02:35.800Z,1.35
2023-04-06T01:07:38.328Z,1.16
2023-04-06T01:12:51.399Z,0.98
2023-04-06T01:18:03.509Z,1.05
2023-04-06T01:23:05.779Z,0.81
2023-04-06T01:28:08.843Z,0.97
2023-04-06T01:33:29.354Z,0.75
2023-04-06T01:38:36.557Z,0.53
2023-04-06T01:43:39.182Z,0.44
2023-04-06T01:48:44.210Z,0.41
2023-04-06T01:54:15.563Z,0.31
2023-04-06T01:59:52.455Z,0.30
2023-04-06T02:05:15.454Z,0.43
2023-04-06T02:10:19.271Z,0.65
2023-04-06T02:15:21.057Z,0.64
2023-04-06T02:20:23.128Z,0.49
2023-04-06T02:25:25.544Z,0.31
2023-04-06T02:30:27.290Z,0.15
2023-04-06T02:35:29.924Z,-0.06
2023-04-06T02:40:32.777Z,-0.07
2023-04-06T02:45:46.973Z,0.03
2023-04-06T02:50:49.695Z,-0.08
2023-04-06T02:55:51.466Z,-0.32
2023-04-06T03:00:53.218Z,-0.47
2023-04-06T03:05:57.261Z,-0.63
2023-04-06T03:11:03.072Z,-0.46
2023-04-06T03:16:12.338Z,-0.37
2023-04-06T03:21:18.022Z,-0.70
2023-04-06T03:26:23.644Z,-0.82
2023-04-06T03:31:27.977Z,-0.91
2023-04-06T03:36:36.364Z,-0.90
2023-04-06T03:41:39.460Z,-0.80
2023-04-06T03:46:52.483Z,-0.40
2023-04-06T03:51:55.365Z,-0.33
2023-04-06T03:56:57.366Z,-0.57
2023-04-06T04:02:02.194Z,-0.59
2023-04-06T04:07:05.327Z,-0.73
2023-04-06T04:12:07.437Z,-0.92
2023-04-06T04:17:09.203Z,-1.17
2023-04-06T04:22:10.962Z,-1.34
2023-04-06T04:27:15.638Z,-1.22
2023-04-06T04:32:17.778Z,-0.91
2023-04-06T04:37:22.000Z,-1.22
2023-04-06T04:42:28.208Z,-1.29
2023-04-06T04:47:33.688Z,-0.94
2023-04-06T04:52:36.010Z,-0.83
2023-04-06T04:57:57.999Z,-1.04
2023-04-06T05:03:23.643Z,-1.18
2023-04-06T05:08:33.135Z,-1.18
2023-04-06T05:13:36.649Z,-0.94
2023-04-06T05:18:44.611Z,-0.88
2023-04-06T05:23:46.863Z,-0.88
2023-04-06T05:28:48.795Z,-0.71
2023-04-06T05:33:52.511Z,-0.09
2023-04-06T05:39:05.541Z,0.02
2023-04-06T05:44:16.074Z,0.01
2023-04-06T05:49:22.689Z,0.41
2023-04-06T05:54:24.659Z,0.72
2023-04-06T05:59:32.935Z,0.69
2023-04-06T06:04:35.968Z,1.43
2023-04-06T06:09:38.406Z,2.75
2023-04-06T06:14:51.918Z,3.48
2023-04-06T06:19:56.227Z,3.85
2023-04-06T06:24:58.293Z,3.30
2023-04-06T06:30:00.165Z,2.95
2023-04-06T06:35:05.766Z,2.99
2023-04-06T06:40:10.691Z,3.42
2023-04-06T06:45:12.672Z,3.29
2023-04-06T06:50:15.608Z,3.56
2023-04-06T06:55:19.940Z,3.92
2023-04-06T07:00:22.089Z,3.86
2023-04-06T07:05:28.787Z,3.91
2023-04-06T07:10:32.885Z,4.22
2023-04-06T07:15:34.755Z,4.67
2023-04-06T07:20:37.396Z,4.74
2023-04-06T07:25:39.701Z,4.80
2023-04-06T07:30:41.672Z,5.03
2023-04-06T07:35:46.562Z,5.26
2023-04-06T07:40:49.151Z,5.21
2023-04-06T07:45:51.227Z,5.51
2023-04-06T07:51:03.692Z,5.17
2023-04-06T07:56:06.713Z,5.30
2023-04-06T08:01:08.532Z,5.47
2023-04-06T08:06:10.648Z,6.37
2023-04-06T08:11:12.457Z,6.57
2023-04-06T08:16:17.460Z,7.23
2023-04-06T08:21:19.447Z,7.61
2023-04-06T08:26:22.068Z,7.82
2023-04-06T08:31:23.900Z,8.11
2023-04-06T08:36:25.931Z,8.37
2023-04-06T08:41:28.988Z,8.36
2023-04-06T08:46:31.831Z,8.44
2023-04-06T08:51:33.868Z,8.56
2023-04-06T08:56:39.220Z,8.57
2023-04-06T09:01:44.799Z,8.80
2023-04-06T09:06:46.629Z,9.03
2023-04-06T09:11:52.902Z,9.40
2023-04-06T09:16:54.697Z,9.56
2023-04-06T09:22:08.558Z,9.51
2023-04-06T09:27:10.825Z,9.92
2023-04-06T09:32:13.372Z,10.46
2023-04-06T09:37:19.388Z,10.74
2023-04-06T09:42:26.617Z,11.43
2023-04-06T09:47:29.955Z,11.43
2023-04-06T09:52:39.424Z,11.97
2023-04-06T09:58:04.172Z,12.26
2023-04-06T10:03:31.563Z,11.80
2023-04-06T10:08:36.273Z,11.67
2023-04-06T10:13:38.575Z,10.43
2023-04-06T10:18:43.940Z,10.19
2023-04-06T10:24:01.836Z,9.59
2023-04-06T10:29:07.309Z,9.20
2023-04-06T10:34:09.408Z,10.15
2023-04-06T10:39:11.610Z,10.30
2023-04-06T10:44:23.846Z,11.16
2023-04-06T10:49:28.897Z,11.69
2023-04-06T10:54:33.022Z,11.68
2023-04-06T10:59:34.971Z,12.62
2023-04-06T11:04:36.976Z,12.48
2023-04-06T11:09:40.357Z,12.71
2023-04-06T11:14:42.715Z,12.80
2023-04-06T11:19:44.671Z,12.07
2023-04-06T11:24:46.512Z,11.62
2023-04-06T11:29:48.836Z,10.83
2023-04-06T11:34:50.765Z,10.64
2023-04-06T11:39:55.820Z,10.11
2023-04-06T11:44:58.799Z,10.09
2023-04-06T11:50:12.242Z,11.33
2023-04-06T11:55:19.425Z,12.27
2023-04-06T12:00:22.586Z,12.01
2023-04-06T12:05:26.014Z,12.17
2023-04-06T12:10:27.897Z,12.06
2023-04-06T12:15:29.749Z,11.05
2023-04-06T12:20:32.555Z,10.79
2023-04-06T12:25:34.514Z,10.54
2023-04-06T12:30:36.811Z,10.89
2023-04-06T12:35:39.989Z,10.66
2023-04-06T12:40:42.060Z,10.37
2023-04-06T12:45:43.849Z,10.60
2023-04-06T12:50:45.806Z,10.55
2023-04-06T12:55:47.801Z,10.76
2023-04-06T13:00:51.305Z,11.28
2023-04-06T13:05:53.336Z,11.33
2023-04-06T13:10:55.653Z,11.05
2023-04-06T13:16:10.119Z,10.92
2023-04-06T13:21:17.083Z,10.87
2023-04-06T13:26:18.882Z,10.99
2023-04-06T13:31:20.797Z,10.87
2023-04-06T13:36:23.059Z,10.72
2023-04-06T13:41:27.397Z,10.54
2023-04-06T13:46:29.255Z,10.21
2023-04-06T13:51:31.860Z,10.26
2023-04-06T13:56:33.729Z,10.58
2023-04-06T14:01:35.582Z,10.34
2023-04-06T14:06:38.166Z,9.98
2023-04-06T14:11:40.194Z,10.00
2023-04-06T14:16:45.154Z,9.98
2023-04-06T14:21:46.889Z,10.01
2023-04-06T14:26:48.607Z,9.99
2023-04-06T14:31:50.365Z,10.12
2023-04-06T14:36:52.152Z,10.11
2023-04-06T14:41:54.018Z,9.86
2023-04-06T14:46:55.779Z,10.05
2023-04-06T14:51:58.289Z,10.02
2023-04-06T14:57:00.045Z,10.04
2023-04-06T15:02:04.064Z,9.99
2023-04-06T15:07:06.265Z,10.03
2023-04-06T15:12:08.072Z,9.99
2023-04-06T15:17:09.726Z,9.82
2023-04-06T15:22:12.538Z,9.80
2023-04-06T15:27:14.187Z,9.81
2023-04-06T15:32:18.768Z,9.84
2023-04-06T15:37:21.194Z,9.50
2023-04-06T15:42:22.904Z,9.97
2023-04-06T15:47:24.916Z,9.81
2023-04-06T15:52:26.847Z,9.46
2023-04-06T15:57:28.818Z,9.44
2023-04-06T16:02:31.050Z,9.45
2023-04-06T16:07:34.376Z,9.40
2023-04-06T16:12:36.096Z,9.39
2023-04-06T16:17:37.866Z,9.10
2023-04-06T16:22:39.982Z,9.37
2023-04-06T16:27:41.818Z,9.14
2023-04-06T16:32:44.639Z,9.07
2023-04-06T16:37:46.630Z,9.09
2023-04-06T16:42:48.349Z,9.44
2023-04-06T16:47:50.769Z,9.31
2023-04-06T16:52:52.656Z,9.12
2023-04-06T16:57:57.880Z,9.02
2023-04-06T17:03:01.248Z,8.89
2023-04-06T17:08:03.206Z,9.01
2023-04-06T17:13:06.293Z,8.93
2023-04-06T17:18:08.104Z,8.73
2023-04-06T17:23:09.863Z,8.50
2023-04-06T17:28:11.650Z,8.43
2023-04-06T17:33:13.767Z,8.39
2023-04-06T17:38:15.585Z,8.44
2023-04-06T17:43:17.975Z,8.17
2023-04-06T17:48:19.974Z,8.21
2023-04-06T17:53:21.929Z,8.22
2023-04-06T17:58:23.856Z,7.84
2023-04-06T18:03:25.647Z,7.84
2023-04-06T18:08:27.327Z,7.73
2023-04-06T18:13:28.928Z,7.51
2023-04-06T18:18:30.611Z,7.41
2023-04-06T18:23:34.207Z,7.20
2023-04-06T18:28:36.152Z,7.31
2023-04-06T18:33:37.839Z,6.99
2023-04-06T18:38:47.819Z,6.87
2023-04-06T18:43:49.731Z,6.80
2023-04-06T18:48:51.378Z,6.64
2023-04-06T18:53:53.026Z,6.55
2023-04-06T18:58:55.128Z,6.32
2023-04-06T19:03:58.733Z,6.15
2023-04-06T19:09:01.240Z,5.93
2023-04-06T19:14:03.075Z,5.84
2023-04-06T19:19:04.989Z,5.57
2023-04-06T19:24:07.150Z,5.36
2023-04-06T19:29:10.399Z,5.19
2023-04-06T19:34:17.391Z,5.24
2023-04-06T19:39:19.160Z,5.00
2023-04-06T19:44:20.977Z,5.23
2023-04-06T19:49:22.719Z,4.98
2023-04-06T19:54:24.803Z,4.99
2023-04-06T19:59:26.674Z,4.86
2023-04-06T20:04:28.630Z,4.70
2023-04-06T20:09:30.474Z,4.32
2023-04-06T20:14:32.233Z,4.10
2023-04-06T20:19:33.876Z,3.89
2023-04-06T20:24:35.626Z,4.05
2023-04-06T20:29:37.506Z,4.27
2023-04-06T20:34:39.465Z,4.03
2023-04-06T20:39:41.734Z,3.94
2023-04-06T20:44:44.269Z,3.50
2023-04-06T20:49:46.221Z,3.54
2023-04-06T20:54:48.552Z,3.78
2023-04-06T20:59:50.480Z,3.54
2023-04-06T21:04:52.257Z,3.17
2023-04-06T21:09:54.053Z,3.54
2023-04-06T21:14:55.717Z,3.54
2023-04-06T21:19:57.378Z,3.55
2023-04-06T21:24:59.113Z,2.99
2023-04-06T21:30:00.834Z,3.22
2023-04-06T21:35:03.135Z,2.98
2023-04-06T21:40:05.770Z,2.94
2023-04-06T21:45:07.869Z,2.63
2023-04-06T21:50:09.846Z,2.74
2023-04-06T21:55:11.821Z,2.42
2023-04-06T22:00:14.013Z,2.32
2023-04-06T22:05:18.570Z,2.42
2023-04-06T22:10:20.485Z,2.72
2023-04-06T22:15:22.294Z,2.44
2023-04-06T22:20:23.998Z,2.24
2023-04-06T22:25:25.702Z,2.21
2023-04-06T22:30:27.331Z,2.36
2023-04-06T22:35:28.965Z,2.01
2023-04-06T22:40:30.597Z,2.26
2023-04-06T22:45:32.253Z,2.09
2023-04-06T22:50:34.034Z,1.86
2023-04-06T22:55:35.937Z,2.06
2023-04-06T23:00:37.583Z,1.99
2023-04-06T23:05:39.322Z,1.95
2023-04-06T23:10:42.081Z,1.72
2023-04-06T23:15:44.481Z,2.06
2023-04-06T23:20:46.372Z,1.78
2023-04-06T23:25:48.001Z,1.76
2023-04-06T23:30:49.672Z,1.70
2023-04-06T23:35:52.134Z,1.70
2023-04-06T23:40:53.861Z,2.05
2023-04-06T23:45:55.697Z,2.05
2023-04-06T23:50:58.654Z,2.00
2023-04-06T23:56:00.584Z,2.13
